createdAt,value
2023-02-03T00:01:30.052Z,8.10
2023-02-03T00:03:56.776Z,7.20
2023-02-03T00:06:36.377Z,8.18
2023-02-03T00:12:08.341Z,9.25
2023-02-03T00:14:36.027Z,6.18
2023-02-03T00:17:14.140Z,11.88
2023-02-03T00:19:46.736Z,10.20
2023-02-03T00:22:13.269Z,11.63
2023-02-03T00:24:42.141Z,7.88
2023-02-03T00:27:17.400Z,13.20
2023-02-03T00:29:43.940Z,10.60
2023-02-03T00:32:18.034Z,13.52
2023-02-03T00:34:45.484Z,14.85
2023-02-03T00:37:15.154Z,10.05
2023-02-03T00:39:43.771Z,11.93
2023-02-03T00:42:20.450Z,11.85
2023-02-03T00:44:46.983Z,12.38
2023-02-03T00:47:20.404Z,17.77
2023-02-03T00:49:46.912Z,18.73
2023-02-03T00:52:13.496Z,9.38
2023-02-03T00:54:42.517Z,13.68
2023-02-03T00:57:10.474Z,15.70
2023-02-03T00:59:37.363Z,13.30
2023-02-03T01:02:13.921Z,11.35
2023-02-03T01:04:50.426Z,9.10
2023-02-03T01:07:17.609Z,9.07
2023-02-03T01:09:51.843Z,8.18
2023-02-03T01:12:37.453Z,8.90
2023-02-03T01:15:05.075Z,12.30
2023-02-03T01:17:36.659Z,6.55
2023-02-03T01:20:07.492Z,6.00
2023-02-03T01:22:37.567Z,9.95
2023-02-03T01:25:11.873Z,11.38
2023-02-03T01:27:38.480Z,10.18
2023-02-03T01:30:05.559Z,7.72
2023-02-03T01:32:35.924Z,9.20
2023-02-03T01:35:12.935Z,8.50
2023-02-03T01:37:42.504Z,10.55
2023-02-03T01:40:09.730Z,11.73
2023-02-03T01:42:36.236Z,12.82
2023-02-03T01:45:02.718Z,9.43
2023-02-03T01:47:32.332Z,9.20
2023-02-03T01:50:24.206Z,10.05
2023-02-03T01:53:03.657Z,8.48
2023-02-03T01:55:41.090Z,11.98
2023-02-03T01:58:19.926Z,9.95
2023-02-03T02:00:54.176Z,10.32
2023-02-03T02:03:45.782Z,8.30
2023-02-03T02:06:13.877Z,9.82
2023-02-03T02:08:43.102Z,9.32
2023-02-03T02:11:09.629Z,10.63
2023-02-03T02:13:36.840Z,10.88
2023-02-03T02:16:18.309Z,10.60
2023-02-03T02:19:00.075Z,14.57
2023-02-03T02:21:46.325Z,8.13
2023-02-03T02:24:34.559Z,7.35
2023-02-03T02:27:43.597Z,8.70
2023-02-03T02:30:37.375Z,12.27
2023-02-03T02:33:10.373Z,8.65
2023-02-03T02:35:46.095Z,10.65
2023-02-03T02:38:36.825Z,10.90
2023-02-03T02:41:25.688Z,9.07
2023-02-03T02:44:07.031Z,9.88
2023-02-03T02:46:46.285Z,9.90
2023-02-03T02:49:30.629Z,8.73
2023-02-03T02:52:00.177Z,9.27
2023-02-03T02:54:37.632Z,8.52
2023-02-03T02:57:17.065Z,8.45
2023-02-03T02:59:43.654Z,8.18
2023-02-03T03:02:11.756Z,9.52
2023-02-03T03:04:48.791Z,7.97
2023-02-03T03:07:24.157Z,7.80
2023-02-03T03:10:01.319Z,8.23
2023-02-03T03:12:44.695Z,9.77
2023-02-03T03:15:19.093Z,12.30
2023-02-03T03:17:54.895Z,7.50
2023-02-03T03:20:28.408Z,8.55
2023-02-03T03:23:19.508Z,9.77
2023-02-03T03:25:51.974Z,10.05
2023-02-03T03:28:28.016Z,11.55
2023-02-03T03:30:56.914Z,7.53
2023-02-03T03:33:23.616Z,10.35
2023-02-03T03:36:18.633Z,9.30
2023-02-03T03:39:08.744Z,8.68
2023-02-03T03:41:54.916Z,9.90
2023-02-03T03:44:26.663Z,10.27
2023-02-03T03:47:26.486Z,9.38
2023-02-03T03:50:00.218Z,9.23
2023-02-03T03:52:32.171Z,10.75
2023-02-03T03:55:00.743Z,10.48
2023-02-03T03:57:36.558Z,13.45
2023-02-03T04:00:05.722Z,11.93
2023-02-03T04:02:50.763Z,17.25
2023-02-03T04:05:17.570Z,11.10
2023-02-03T04:07:46.204Z,9.05
2023-02-03T04:10:30.463Z,10.57
2023-02-03T04:13:07.874Z,9.85
2023-02-03T04:15:34.779Z,18.15
2023-02-03T04:18:01.668Z,11.48
2023-02-03T04:20:29.755Z,10.93
2023-02-03T04:22:56.709Z,12.57
2023-02-03T04:25:23.670Z,10.73
2023-02-03T04:27:52.771Z,10.80
2023-02-03T04:30:19.494Z,14.73
2023-02-03T04:32:46.964Z,13.27
2023-02-03T04:35:13.979Z,14.25
2023-02-03T04:37:43.429Z,16.70
2023-02-03T04:40:14.771Z,10.95
2023-02-03T04:42:48.727Z,9.18
2023-02-03T04:45:15.901Z,14.77
2023-02-03T04:47:42.589Z,11.60
2023-02-03T04:50:10.256Z,13.63
2023-02-03T04:52:40.784Z,19.10
2023-02-03T04:55:15.884Z,12.32
2023-02-03T04:57:49.572Z,10.13
2023-02-03T05:00:19.741Z,13.65
2023-02-03T05:02:46.348Z,15.30
2023-02-03T05:05:18.610Z,10.15
2023-02-03T05:07:56.035Z,15.88
2023-02-03T05:10:31.076Z,10.68
2023-02-03T05:13:01.095Z,11.63
2023-02-03T05:15:27.775Z,10.90
2023-02-03T05:18:00.330Z,13.95
2023-02-03T05:20:27.078Z,10.48
2023-02-03T05:23:00.045Z,13.68
2023-02-03T05:25:41.272Z,11.57
2023-02-03T05:28:09.120Z,11.18
2023-02-03T05:30:44.366Z,9.48
2023-02-03T05:33:13.947Z,10.63
2023-02-03T05:35:45.893Z,10.63
2023-02-03T05:38:18.966Z,15.15
2023-02-03T05:40:54.820Z,12.05
2023-02-03T05:43:24.887Z,17.88
2023-02-03T05:45:51.492Z,21.13
2023-02-03T05:48:18.035Z,12.85
2023-02-03T05:50:51.746Z,14.10
2023-02-03T05:53:19.019Z,17.80
2023-02-03T05:55:50.139Z,14.60
2023-02-03T05:58:16.659Z,17.25
2023-02-03T06:00:43.447Z,19.55
2023-02-03T06:03:19.032Z,14.10
2023-02-03T06:05:45.585Z,14.35
2023-02-03T06:08:21.710Z,17.05
2023-02-03T06:10:48.274Z,13.95
2023-02-03T06:13:19.006Z,13.23
2023-02-03T06:15:56.147Z,12.77
2023-02-03T06:18:24.516Z,15.32
2023-02-03T06:21:00.853Z,16.08
2023-02-03T06:23:28.297Z,17.67
2023-02-03T06:26:01.217Z,13.73
2023-02-03T06:28:30.363Z,16.20
2023-02-03T06:30:57.059Z,13.55
2023-02-03T06:33:26.631Z,14.35
2023-02-03T06:35:54.715Z,22.05
2023-02-03T06:38:33.432Z,25.23
2023-02-03T06:44:10.382Z,20.42
2023-02-03T06:49:24.036Z,15.65
2023-02-03T06:51:55.740Z,13.55
2023-02-03T06:54:27.536Z,14.23
2023-02-03T06:57:03.262Z,17.40
2023-02-03T06:59:46.994Z,13.00
2023-02-03T07:02:20.905Z,16.63
2023-02-03T07:05:17.138Z,17.33
2023-02-03T07:07:46.543Z,19.60
2023-02-03T07:10:15.587Z,18.65
2023-02-03T07:12:42.180Z,19.25
2023-02-03T07:15:16.415Z,18.52
2023-02-03T07:17:47.987Z,23.88
2023-02-03T07:20:24.933Z,29.95
2023-02-03T07:22:56.779Z,19.98
2023-02-03T07:25:33.497Z,18.70
2023-02-03T07:28:05.472Z,23.75
2023-02-03T07:30:32.127Z,24.03
2023-02-03T07:33:06.576Z,20.23
2023-02-03T07:38:22.024Z,19.10
2023-02-03T07:41:06.872Z,30.15
2023-02-03T07:43:36.305Z,32.05
2023-02-03T07:46:03.020Z,40.38
2023-02-03T07:48:38.469Z,28.42
2023-02-03T07:51:06.067Z,21.80
2023-02-03T07:53:33.318Z,21.55
2023-02-03T07:56:03.337Z,23.70
2023-02-03T07:58:33.152Z,24.80
2023-02-03T08:01:00.202Z,54.90
2023-02-03T08:03:29.746Z,238.50
2023-02-03T08:06:08.959Z,130.63
2023-02-03T08:08:36.181Z,57.40
2023-02-03T08:11:02.755Z,30.15
2023-02-03T08:13:33.180Z,27.20
2023-02-03T08:16:04.052Z,42.00
2023-02-03T08:18:32.638Z,25.17
2023-02-03T08:21:03.689Z,47.30
2023-02-03T08:23:30.916Z,28.42
2023-02-03T08:26:03.086Z,25.88
2023-02-03T08:28:35.498Z,32.63
2023-02-03T08:31:04.195Z,29.85
2023-02-03T08:33:31.444Z,32.60
2023-02-03T08:35:58.063Z,28.05
2023-02-03T08:38:27.602Z,23.58
2023-02-03T08:40:54.277Z,25.05
2023-02-03T08:43:20.911Z,21.38
2023-02-03T08:45:50.619Z,31.88
2023-02-03T08:48:17.297Z,28.88
2023-02-03T08:50:44.470Z,21.38
2023-02-03T08:53:11.421Z,20.50
2023-02-03T08:55:41.109Z,21.55
2023-02-03T08:58:07.688Z,23.02
2023-02-03T09:00:36.541Z,28.13
2023-02-03T09:03:03.169Z,26.23
2023-02-03T09:05:32.943Z,25.88
2023-02-03T09:07:59.752Z,29.33
2023-02-03T09:10:29.706Z,24.77
2023-02-03T09:12:57.183Z,26.33
2023-02-03T09:15:23.969Z,25.08
2023-02-03T09:17:50.569Z,26.60
2023-02-03T09:20:23.070Z,26.95
2023-02-03T09:22:49.788Z,27.20
2023-02-03T09:25:16.621Z,29.35
2023-02-03T09:27:46.573Z,28.90
2023-02-03T09:30:19.337Z,33.35
2023-02-03T09:32:46.009Z,36.83
2023-02-03T09:35:12.577Z,28.58
2023-02-03T09:37:39.181Z,26.10
2023-02-03T09:40:06.657Z,20.63
2023-02-03T09:43:02.255Z,22.38
2023-02-03T09:45:30.888Z,23.92
2023-02-03T09:48:05.019Z,30.02
2023-02-03T09:50:35.710Z,24.33
2023-02-03T09:53:12.615Z,21.65
2023-02-03T09:55:42.573Z,21.05
2023-02-03T09:58:20.722Z,27.83
2023-02-03T10:00:59.798Z,20.75
2023-02-03T10:03:36.828Z,27.58
2023-02-03T10:06:28.264Z,25.98
2023-02-03T10:09:00.755Z,19.70
2023-02-03T10:11:41.536Z,26.27
2023-02-03T10:14:24.205Z,23.52
2023-02-03T10:17:40.101Z,24.27
2023-02-03T10:20:10.094Z,28.15
2023-02-03T10:23:18.021Z,22.90
2023-02-03T10:25:57.339Z,33.35
2023-02-03T10:28:41.768Z,36.88
2023-02-03T10:31:32.658Z,34.45
2023-02-03T10:37:14.553Z,28.95
2023-02-03T10:39:58.640Z,36.20
2023-02-03T10:42:38.069Z,33.78
2023-02-03T10:45:05.429Z,32.42
2023-02-03T10:47:41.962Z,41.83
2023-02-03T10:50:18.834Z,30.23
2023-02-03T10:52:45.844Z,34.63
2023-02-03T10:55:21.556Z,38.35
2023-02-03T10:57:48.553Z,31.42
2023-02-03T11:00:19.579Z,42.15
2023-02-03T11:03:03.267Z,43.78
2023-02-03T11:05:33.390Z,42.55
2023-02-03T11:08:29.531Z,47.72
2023-02-03T11:11:31.039Z,38.50
2023-02-03T11:14:07.832Z,46.00
2023-02-03T11:16:41.696Z,32.85
2023-02-03T11:19:28.452Z,43.58
2023-02-03T11:22:03.284Z,54.70
2023-02-03T11:24:46.353Z,56.85
2023-02-03T11:27:18.558Z,51.38
2023-02-03T11:29:54.159Z,55.00
2023-02-03T11:32:33.648Z,49.60
2023-02-03T11:35:27.958Z,57.05
2023-02-03T11:37:57.187Z,57.83
2023-02-03T11:40:29.370Z,63.42
2023-02-03T11:42:56.131Z,53.28
2023-02-03T11:45:41.714Z,43.03
2023-02-03T11:48:13.319Z,60.35
2023-02-03T11:50:52.130Z,59.92
2023-02-03T11:53:30.147Z,64.65
2023-02-03T11:56:28.953Z,65.57
2023-02-03T11:59:31.546Z,62.70
2023-02-03T12:05:07.264Z,76.85
2023-02-03T12:07:46.901Z,69.40
2023-02-03T12:10:31.503Z,62.22
2023-02-03T12:13:26.673Z,68.78
2023-02-03T12:16:25.991Z,66.25
2023-02-03T12:19:20.394Z,75.90
2023-02-03T12:22:08.631Z,80.30
2023-02-03T12:25:08.990Z,84.50
2023-02-03T12:28:20.671Z,58.53
2023-02-03T12:31:21.240Z,79.47
2023-02-03T12:36:42.929Z,80.60
2023-02-03T12:39:47.077Z,87.93
2023-02-03T12:42:50.444Z,83.40
2023-02-03T12:45:38.158Z,81.60
2023-02-03T12:48:19.285Z,76.97
2023-02-03T12:51:02.481Z,74.97
2023-02-03T12:53:34.010Z,78.22
2023-02-03T12:56:08.703Z,76.00
2023-02-03T12:58:50.533Z,75.18
2023-02-03T13:02:03.321Z,66.38
2023-02-03T13:05:00.943Z,67.97
2023-02-03T13:08:03.858Z,68.13
2023-02-03T13:10:50.033Z,69.80
2023-02-03T13:13:41.777Z,59.25
2023-02-03T13:16:37.258Z,68.72
2023-02-03T13:19:17.581Z,64.50
2023-02-03T13:21:53.405Z,61.92
2023-02-03T13:24:30.217Z,61.17
2023-02-03T13:27:17.630Z,55.08
2023-02-03T13:30:04.946Z,54.75
2023-02-03T13:32:56.180Z,61.15
2023-02-03T13:35:34.365Z,56.53
2023-02-03T13:38:16.266Z,60.58
2023-02-03T13:41:17.658Z,58.92
2023-02-03T13:43:50.487Z,55.90
2023-02-03T13:46:32.300Z,55.55
2023-02-03T13:49:10.708Z,51.28
2023-02-03T13:51:46.974Z,51.00
2023-02-03T13:54:26.098Z,50.17
2023-02-03T13:57:20.431Z,50.47
2023-02-03T13:59:47.233Z,47.90
2023-02-03T14:02:19.839Z,47.38
2023-02-03T14:04:46.498Z,48.17
2023-02-03T14:07:39.003Z,53.28
2023-02-03T14:10:14.790Z,49.95
2023-02-03T14:12:53.683Z,48.28
2023-02-03T14:15:52.282Z,44.40
2023-02-03T14:18:54.944Z,42.80
2023-02-03T14:21:24.641Z,53.05
2023-02-03T14:24:02.457Z,40.03
2023-02-03T14:26:34.118Z,42.00
2023-02-03T14:29:02.096Z,39.85
2023-02-03T14:31:28.847Z,44.92
2023-02-03T14:34:17.595Z,44.35
2023-02-03T14:36:50.719Z,43.42
2023-02-03T14:39:24.570Z,45.33
2023-02-03T14:42:16.214Z,50.78
2023-02-03T14:45:20.628Z,53.00
2023-02-03T14:47:52.658Z,56.33
2023-02-03T14:52:58.909Z,52.88
2023-02-03T14:56:10.150Z,55.42
2023-02-03T14:59:04.911Z,55.67
2023-02-03T15:01:51.628Z,63.30
2023-02-03T15:04:28.709Z,64.53
2023-02-03T15:07:04.706Z,60.25
2023-02-03T15:09:47.451Z,60.83
2023-02-03T15:12:24.335Z,64.25
2023-02-03T15:14:51.011Z,64.75
2023-02-03T15:17:27.498Z,59.47
2023-02-03T15:19:54.627Z,65.43
2023-02-03T15:22:28.767Z,61.85
2023-02-03T15:25:03.771Z,59.30
2023-02-03T15:27:36.283Z,61.65
2023-02-03T15:30:40.180Z,76.25
2023-02-03T15:33:39.776Z,69.72
2023-02-03T15:36:15.314Z,70.07
2023-02-03T15:38:50.557Z,70.00
2023-02-03T15:41:25.436Z,76.00
2023-02-03T15:44:01.285Z,67.78
2023-02-03T15:46:42.097Z,74.53
2023-02-03T15:49:18.187Z,73.53
2023-02-03T15:52:03.113Z,76.10
2023-02-03T15:55:20.882Z,71.90
2023-02-03T15:57:52.850Z,71.75
2023-02-03T16:00:41.376Z,67.18
2023-02-03T16:03:40.308Z,75.35
2023-02-03T16:06:31.367Z,73.93
2023-02-03T16:08:58.878Z,71.60
2023-02-03T16:11:30.096Z,79.65
2023-02-03T16:13:58.002Z,83.30
2023-02-03T16:17:03.886Z,75.30
2023-02-03T16:19:36.714Z,86.40
2023-02-03T16:24:49.759Z,76.25
2023-02-03T16:27:25.561Z,82.28
2023-02-03T16:29:56.243Z,85.00
2023-02-03T16:32:23.208Z,81.70
2023-02-03T16:34:50.747Z,76.28
2023-02-03T16:37:42.553Z,82.00
2023-02-03T16:40:12.608Z,82.85
2023-02-03T16:42:45.430Z,86.88
2023-02-03T16:45:19.226Z,92.43
2023-02-03T16:47:47.221Z,90.40
2023-02-03T16:50:32.816Z,83.55
2023-02-03T16:53:04.667Z,89.05
2023-02-03T16:55:34.428Z,79.07
2023-02-03T16:58:04.572Z,96.57
2023-02-03T17:00:46.984Z,93.97
2023-02-03T17:03:28.236Z,91.85
2023-02-03T17:05:56.242Z,92.43
2023-02-03T17:08:25.269Z,93.32
2023-02-03T17:10:54.970Z,94.72
2023-02-03T17:13:23.183Z,98.32
2023-02-03T17:15:52.441Z,96.82
2023-02-03T17:18:24.889Z,99.68
2023-02-03T17:20:53.632Z,98.70
2023-02-03T17:23:27.350Z,98.20
2023-02-03T17:26:04.706Z,96.15
2023-02-03T17:28:31.519Z,88.65
2023-02-03T17:31:11.285Z,90.97
2023-02-03T17:33:40.952Z,94.60
2023-02-03T17:36:19.199Z,90.35
2023-02-03T17:55:14.771Z,103.30
2023-02-03T17:57:45.821Z,92.20
2023-02-03T18:00:13.135Z,97.97
2023-02-03T18:02:44.084Z,106.10
2023-02-03T18:05:13.729Z,96.20
2023-02-03T18:07:40.529Z,94.43
2023-02-03T18:10:30.627Z,96.22
2023-02-03T18:12:57.356Z,97.25
2023-02-03T18:15:23.984Z,96.70
2023-02-03T18:17:54.674Z,97.53
2023-02-03T18:20:21.488Z,93.35
2023-02-03T18:22:48.328Z,98.38
2023-02-03T18:25:21.234Z,92.05
2023-02-03T18:27:55.325Z,101.35
2023-02-03T18:30:22.006Z,92.82
2023-02-03T18:32:52.107Z,89.20
2023-02-03T18:35:21.764Z,89.72
2023-02-03T18:37:53.941Z,89.18
2023-02-03T18:40:23.653Z,80.75
2023-02-03T18:42:51.953Z,83.40
2023-02-03T18:45:18.677Z,82.63
2023-02-03T18:47:45.639Z,89.15
2023-02-03T18:50:12.276Z,96.93
2023-02-03T18:52:38.849Z,88.20
2023-02-03T18:55:19.877Z,96.15
2023-02-03T18:57:46.496Z,89.30
2023-02-03T19:00:32.245Z,78.28
2023-02-03T19:03:02.774Z,89.10
2023-02-03T19:05:29.517Z,89.38
2023-02-03T19:08:00.747Z,94.13
2023-02-03T19:10:28.143Z,94.13
2023-02-03T19:12:55.028Z,94.47
2023-02-03T19:15:23.925Z,85.85
2023-02-03T19:17:50.602Z,85.25
2023-02-03T19:20:20.419Z,81.72
2023-02-03T19:22:50.309Z,88.45
2023-02-03T19:25:29.542Z,81.85
2023-02-03T19:27:57.492Z,80.03
2023-02-03T19:30:27.577Z,79.35
2023-02-03T19:32:56.965Z,69.10
2023-02-03T19:35:25.028Z,68.72
2023-02-03T19:40:38.446Z,58.92
2023-02-03T19:43:05.187Z,60.20
2023-02-03T19:45:33.482Z,68.57
2023-02-03T19:48:00.408Z,68.15
2023-02-03T19:53:18.991Z,66.88
2023-02-03T19:55:46.590Z,59.45
2023-02-03T19:58:22.532Z,56.38
2023-02-03T20:00:56.989Z,54.40
2023-02-03T20:03:30.160Z,58.25
2023-02-03T20:05:57.581Z,61.13
2023-02-03T20:08:24.947Z,56.38
2023-02-03T20:10:54.783Z,47.35
2023-02-03T20:13:21.518Z,46.53
2023-02-03T20:15:48.243Z,45.20
2023-02-03T20:18:15.111Z,37.47
2023-02-03T20:20:42.016Z,33.30
2023-02-03T20:23:08.708Z,33.30
2023-02-03T20:25:42.820Z,23.40
2023-02-03T20:28:13.235Z,22.65
2023-02-03T20:30:46.522Z,19.75
2023-02-03T20:33:19.751Z,21.40
2023-02-03T20:35:54.868Z,22.42
2023-02-03T20:38:21.661Z,20.33
2023-02-03T20:41:00.177Z,17.77
2023-02-03T20:43:42.283Z,17.80
2023-02-03T20:46:21.999Z,21.58
2023-02-03T20:48:52.598Z,19.30
2023-02-03T20:51:19.852Z,14.82
2023-02-03T20:53:51.869Z,13.27
2023-02-03T20:58:47.942Z,11.27
2023-02-03T21:01:24.506Z,13.85
2023-02-03T21:03:53.417Z,14.10
2023-02-03T21:06:20.814Z,13.82
2023-02-03T21:08:52.950Z,11.10
2023-02-03T21:11:32.810Z,9.65
2023-02-03T21:14:02.469Z,12.63
2023-02-03T21:16:38.289Z,11.05
2023-02-03T21:19:05.415Z,13.20
2023-02-03T21:21:39.877Z,11.45
2023-02-03T21:24:38.741Z,10.65
2023-02-03T21:27:34.166Z,11.45
2023-02-03T21:30:03.810Z,12.45
2023-02-03T21:32:42.656Z,13.50
2023-02-03T21:35:42.754Z,13.75
2023-02-03T21:38:46.096Z,10.48
2023-02-03T21:41:20.806Z,9.63
2023-02-03T21:43:50.923Z,8.25
2023-02-03T21:46:26.706Z,10.73
2023-02-03T21:49:02.551Z,9.10
2023-02-03T21:51:40.631Z,10.82
2023-02-03T21:54:28.036Z,10.18
2023-02-03T21:56:54.797Z,9.20
2023-02-03T21:59:24.141Z,7.30
2023-02-03T22:01:51.754Z,14.15
2023-02-03T22:04:20.158Z,9.32
2023-02-03T22:06:53.264Z,12.20
2023-02-03T22:09:27.439Z,10.95
2023-02-03T22:11:55.989Z,11.43
2023-02-03T22:14:23.135Z,10.35
2023-02-03T22:17:00.936Z,9.25
2023-02-03T22:19:33.435Z,11.60
2023-02-03T22:22:10.534Z,11.63
2023-02-03T22:24:57.648Z,11.63
2023-02-03T22:27:24.260Z,11.88
2023-02-03T22:29:50.981Z,12.77
2023-02-03T22:32:17.581Z,12.00
2023-02-03T22:34:44.187Z,16.30
2023-02-03T22:37:10.786Z,20.27
2023-02-03T22:39:37.343Z,23.38
2023-02-03T22:42:04.265Z,18.48
2023-02-03T22:44:33.476Z,16.73
2023-02-03T22:47:02.359Z,17.65
2023-02-03T22:49:31.931Z,16.83
2023-02-03T22:51:58.507Z,18.30
2023-02-03T22:54:31.748Z,16.52
2023-02-03T22:57:00.843Z,18.00
2023-02-03T22:59:38.893Z,18.20
2023-02-03T23:02:07.520Z,20.75
2023-02-03T23:04:34.310Z,26.02
2023-02-03T23:07:03.220Z,24.95
2023-02-03T23:09:36.552Z,40.80
2023-02-03T23:12:11.209Z,30.42
2023-02-03T23:14:41.417Z,32.30
2023-02-03T23:17:08.043Z,29.02
2023-02-03T23:19:41.491Z,24.85
2023-02-03T23:22:18.604Z,30.00
2023-02-03T23:24:46.239Z,28.55
2023-02-03T23:27:17.098Z,34.00
2023-02-03T23:29:43.725Z,34.63
2023-02-03T23:32:10.349Z,31.67
2023-02-03T23:34:49.018Z,24.42
2023-02-03T23:37:21.130Z,29.73
2023-02-03T23:42:16.810Z,28.35
2023-02-03T23:44:46.129Z,31.27
2023-02-03T23:47:15.351Z,30.40
2023-02-03T23:49:41.992Z,38.42
2023-02-03T23:52:08.642Z,29.88
2023-02-03T23:54:37.874Z,29.85
2023-02-03T23:59:47.664Z,32.45
